Latest Weather Observations for Penrith

IDN60801

Issued at 8:41 pm EDT Sunday 21 December 2014 (issued every 30 minutes, with the page automatically refreshed every 10 minutes)

About weather observations | Map of weather stations | Latest weather observations for NSW | Other Formats
Station Details ID: 067113 Name: PENRITH LAKES AWS Lat: -33.72 Lon: 150.68 Height: 24.7 m
Data from the previous 72 hours. | See also: Recent months at Penrith
Date/Time
EDT
Temp
°C
App
Temp
°C
Dew
Point
Rel
Hum
%
Delta-T
°C
Wind Press
QNH
hPa
Press
MSL
hPa
Rain
since 9 am
mm
Dir
 
Spd
km/h
Gust
km/h
Spd
kts
Gust
kts
21/08:30pm 24.1 24.0 16.9 64 4.4 ENE 13 17 7 9 - - 0.0
21/08:00pm 25.0 24.8 16.7 60 5.1 ENE 13 19 7 10 - - 0.0
21/07:30pm 26.1 26.2 16.6 55 5.9 E 11 19 6 10 - - 0.0
21/07:00pm 27.2 26.5 16.5 52 6.6 ENE 15 24 8 13 - - 0.0
21/06:30pm 28.1 27.9 16.7 50 7.1 E 13 22 7 12 - - 0.0
21/06:00pm 28.8 28.6 16.7 48 7.6 E 13 22 7 12 - - 0.0
21/05:30pm 29.3 28.3 16.5 46 8.0 E 17 26 9 14 - - 0.0
21/05:00pm 29.6 28.1 16.4 45 8.2 ENE 19 26 10 14 - - 0.0
21/04:30pm 30.1 28.3 16.1 42 8.7 E 20 28 11 15 - - 0.0
21/04:00pm 30.6 28.5 15.1 39 9.5 ENE 20 32 11 17 - - 0.0
21/03:30pm 31.6 31.5 13.8 34 10.8 ENE 7 22 4 12 - - 0.0
21/03:00pm 30.4 28.6 13.2 35 10.3 N 15 24 8 13 - - 0.0
21/02:30pm 29.9 28.3 14.0 37 9.6 NNE 15 26 8 14 - - 0.0
21/02:00pm 29.1 27.7 13.3 37 9.4 N 13 24 7 13 - - 0.0
21/01:30pm 28.9 28.8 13.9 39 9.0 NE 7 17 4 9 - - 0.0
21/01:00pm 27.7 27.1 13.6 42 8.4 ENE 9 20 5 11 - - 0.0
21/12:30pm 26.9 26.1 14.0 45 7.7 E 11 17 6 9 - - 0.0
21/12:00pm 26.8 26.8 14.2 46 7.5 ENE 7 15 4 8 - - 0.0
21/11:30am 26.0 24.8 14.1 47 7.1 NNE 13 24 7 13 - - 0.0
21/11:00am 25.6 24.2 14.4 50 6.7 NE 15 22 8 12 - - 0.0
21/10:30am 25.1 24.2 14.9 53 6.1 NNE 13 24 7 13 - - 0.0
21/10:00am 24.1 23.9 14.8 56 5.5 NNE 9 17 5 9 - - 0.0
21/09:30am 22.7 22.8 14.0 58 5.1 N 6 9 3 5 - - 0.0
21/09:00am 21.7 22.0 13.3 59 4.8 NE 4 6 2 3 - - 0.0
21/08:30am 20.7 21.0 13.4 63 4.2 ENE 4 6 2 3 - - 0.0
21/08:00am 19.9 21.0 13.6 67 3.6 CALM 0 0 0 0 - - 0.0
21/07:30am 18.7 19.6 14.0 74 2.7 SE 2 4 1 2 - - 0.0
21/07:00am 17.3 18.5 13.8 80 2.0 CALM 0 0 0 0 - - 0.0
21/06:30am 15.7 16.1 13.7 88 1.1 SSW 4 4 2 2 - - 0.0
21/06:00am 15.0 15.2 13.0 88 1.1 S 4 6 2 3 - - 0.0
21/05:30am 15.1 15.2 12.6 85 1.4 W 4 6 2 3 - - 0.0
21/05:00am 15.4 16.4 13.2 87 1.2 CALM 0 0 0 0 - - 0.0
21/04:30am 14.9 15.7 12.6 86 1.3 CALM 0 0 0 0 - - 0.0
21/04:00am 15.3 16.2 12.8 85 1.4 CALM 0 0 0 0 - - 0.0
21/03:30am 15.3 15.4 12.6 84 1.5 SSW 4 6 2 3 - - 0.0
21/03:00am 15.8 16.7 12.9 83 1.6 CALM 0 0 0 0 - - 0.0
21/02:30am 16.2 16.8 13.1 82 1.7 SSE 2 4 1 2 - - 0.0
21/02:00am 16.4 16.6 12.9 80 1.9 SSW 4 6 2 3 - - 0.0
21/01:30am 16.7 16.5 13.0 79 2.1 SSW 6 7 3 4 - - 0.0
21/01:00am 17.5 17.7 13.0 75 2.5 W 4 6 2 3 - - 0.0
21/12:30am 17.9 18.0 12.6 71 3.0 N 4 4 2 2 - - 0.0
21/12:00am 18.6 18.7 12.6 68 3.4 N 4 6 2 3 - - 0.0
 
Date/Time
EDT
Temp
°C
App
Temp
°C
Dew
Point
Rel
Hum
%
Delta-T
°C
Wind Press
QNH
hPa
Press
MSL
hPa
Rain
since 9 am
mm
Dir
 
Spd
km/h
Gust
km/h
Spd
kts
Gust
kts
20/11:30pm 18.9 19.3 12.6 67 3.5 N 2 4 1 2 - - 0.0
20/11:00pm 19.1 19.5 12.6 66 3.6 N 2 4 1 2 - - 0.0
20/10:30pm 19.3 19.4 12.6 65 3.8 NNE 4 4 2 2 - - 0.0
20/10:00pm 19.6 19.2 12.4 63 4.0 E 6 9 3 5 - - 0.0
20/09:30pm 20.0 19.0 12.3 61 4.3 E 9 13 5 7 - - 0.0
20/09:00pm 20.8 19.8 12.2 58 4.8 ENE 9 13 5 7 - - 0.0
20/08:30pm 21.4 20.0 12.3 56 5.1 NE 11 15 6 8 - - 0.0
20/08:00pm 22.2 20.8 12.2 53 5.7 ENE 11 17 6 9 - - 0.0
20/07:30pm 23.1 20.8 11.8 49 6.4 ENE 15 20 8 11 - - 0.0
20/07:00pm 24.1 21.9 12.1 47 6.8 ENE 15 20 8 11 - - 0.0
20/06:30pm 25.0 22.3 11.6 43 7.6 ENE 17 20 9 11 - - 0.0
20/06:00pm 25.8 24.4 12.3 43 7.8 E 11 19 6 10 - - 0.0
20/05:30pm 25.8 23.3 12.3 43 7.8 E 17 24 9 13 - - 0.0
20/05:00pm 26.0 23.1 12.8 44 7.7 ESE 20 30 11 16 - - 0.0
20/04:30pm 27.4 25.9 10.6 35 9.5 ESE 9 15 5 8 - - 0.0
20/04:00pm 27.5 26.5 10.2 34 9.7 ESE 6 11 3 6 - - 0.0
20/03:30pm 26.9 25.5 11.0 37 9.0 SE 9 19 5 10 - - 0.0
20/03:00pm 26.4 25.4 10.9 38 8.7 E 7 17 4 9 - - 0.0
20/02:30pm 25.9 24.7 9.7 36 8.9 ENE 6 13 3 7 - - 0.0
20/02:00pm 26.4 25.3 10.5 37 8.9 E 7 17 4 9 - - 0.0
20/01:30pm 25.8 23.5 10.4 38 8.6 NE 13 20 7 11 - - 0.0
20/01:00pm 25.1 23.0 9.8 38 8.4 ENE 11 17 6 9 - - 0.0
20/12:30pm 24.7 23.3 9.4 38 8.3 NE 7 17 4 9 - - 0.0
20/12:00pm 23.8 22.5 9.8 41 7.6 NNE 7 13 4 7 - - 0.0
20/11:30am 23.9 22.4 10.6 43 7.4 NE 9 19 5 10 - - 0.0
20/11:00am 21.9 20.7 10.4 48 6.3 ENE 7 17 4 9 - - 0.0
20/10:30am 21.8 21.8 11.2 51 5.9 N 2 7 1 4 - - 0.0
20/10:00am 21.8 20.4 10.9 50 6.0 E 9 13 5 7 - - 0.0
20/09:30am 21.6 20.5 10.7 50 6.0 ENE 7 11 4 6 - - 0.0
20/09:00am 19.5 18.7 11.0 58 4.6 SW 6 7 3 4 - - 0.0
20/08:30am 19.7 19.2 12.0 61 4.3 SW 6 7 3 4 - - 0.0
20/08:00am 18.6 18.4 11.7 64 3.8 SW 4 7 2 4 - - 0.0
20/07:30am 19.0 18.8 11.8 63 4.0 S 4 9 2 5 - - 0.0
20/07:00am 17.9 17.4 11.9 68 3.3 SSW 6 9 3 5 - - 0.0
20/06:30am 17.5 16.4 11.8 69 3.1 SSE 9 11 5 6 - - 0.0
20/06:00am 17.4 16.8 11.7 69 3.1 SSE 6 7 3 4 - - 0.0
20/05:30am 17.4 16.8 11.7 69 3.1 SSW 6 7 3 4 - - 0.0
20/05:00am 17.3 16.4 11.3 68 3.3 SW 7 9 4 5 - - 0.0
20/04:30am 17.6 16.7 11.2 66 3.5 S 7 11 4 6 - - 0.0
20/04:00am 17.7 16.9 11.0 65 3.6 S 6 9 3 5 - - 0.0
20/03:30am 17.9 16.8 10.8 63 3.8 S 7 9 4 5 - - 0.0
20/03:00am 17.9 17.1 11.0 64 3.7 SSW 6 7 3 4 - - 0.0
20/02:30am 18.1 17.2 10.7 62 4.0 SSW 6 6 3 3 - - 0.0
20/02:00am 18.0 17.1 10.6 62 4.0 S 6 7 3 4 - - 0.0
20/01:30am 18.1 17.5 10.5 61 4.1 S 4 6 2 3 - - 0.0
20/01:00am 18.3 17.1 10.4 60 4.2 SSE 7 9 4 5 - - 0.0
20/12:30am 18.4 17.3 10.5 60 4.2 SSE 7 13 4 7 - - 0.0
20/12:00am 18.5 17.4 10.6 60 4.3 SE 7 13 4 7 - - 0.0
 
Date/Time
EDT
Temp
°C
App
Temp
°C
Dew
Point
Rel
Hum
%
Delta-T
°C
Wind Press
QNH
hPa
Press
MSL
hPa
Rain
since 9 am
mm
Dir
 
Spd
km/h
Gust
km/h
Spd
kts
Gust
kts
19/11:30pm 18.6 17.4 10.4 59 4.4 SSE 7 11 4 6 - - 0.0
19/11:00pm 18.5 17.5 10.3 59 4.4 S 6 7 3 4 - - 0.0
19/10:30pm 18.6 17.3 9.9 57 4.6 S 7 11 4 6 - - 0.0
19/10:00pm 18.7 17.0 9.8 56 4.7 SSE 9 15 5 8 - - 0.0
19/09:30pm 18.8 16.7 9.6 55 4.9 SSE 11 19 6 10 - - 0.0
19/09:00pm 18.9 16.7 9.4 54 5.0 SSE 11 17 6 9 - - 0.0
19/08:30pm 19.0 16.4 9.2 53 5.2 SE 13 20 7 11 - - 0.0
19/08:00pm 19.1 16.3 10.1 56 4.8 SE 15 26 8 14 - - 0.0
19/07:30pm 19.3 16.7 10.6 57 4.7 SE 15 26 8 14 - - 0.0
19/07:00pm 19.7 16.6 10.4 55 5.0 ESE 17 22 9 12 - - 0.0
19/06:30pm 20.5 17.8 10.3 52 5.5 ESE 15 22 8 12 - - 0.0
19/06:00pm 21.3 17.8 10.2 49 6.0 ESE 19 28 10 15 - - 0.0
19/05:30pm 22.9 20.7 10.7 46 6.7 E 13 24 7 13 - - 0.0
19/05:00pm 22.4 19.4 10.5 47 6.5 ESE 17 24 9 13 - - 0.0
19/04:30pm 22.3 18.7 9.8 45 6.8 ESE 19 28 10 15 - - 0.0
19/04:00pm 24.2 21.4 11.5 45 7.2 SE 17 33 9 18 - - 0.0
19/03:30pm 22.6 19.5 10.4 46 6.7 SE 17 22 9 12 - - 0.0
19/03:00pm 23.0 19.6 10.4 45 6.9 ESE 19 28 10 15 - - 0.0
19/02:30pm 24.0 21.6 11.3 45 7.1 SE 15 24 8 13 - - 0.0
19/02:00pm 23.4 20.6 11.5 47 6.7 ESE 17 28 9 15 - - 0.0
19/01:30pm 23.1 19.9 11.2 47 6.6 ESE 19 30 10 16 - - 0.0
19/01:00pm 24.1 21.4 11.8 46 7.0 ENE 17 30 9 16 - - 0.0
19/12:30pm 25.1 22.7 11.3 42 7.8 E 15 22 8 12 - - 0.0
19/12:00pm 25.0 23.9 10.5 40 8.1 NE 7 17 4 9 - - 0.0
19/11:30am 24.6 24.1 11.9 45 7.2 SSE 6 9 3 5 - - 0.0
19/11:00am 23.8 23.4 12.4 48 6.5 ESE 6 11 3 6 - - 0.0
19/10:30am 22.8 22.5 11.5 49 6.3 NE 4 9 2 5 - - 0.0
19/10:00am 22.2 21.6 11.6 51 5.9 ENE 6 11 3 6 - - 0.0
19/09:30am 21.3 21.0 11.6 54 5.4 ESE 4 9 2 5 - - 0.0
19/09:00am 20.9 20.6 12.6 59 4.7 SE 6 9 3 5 - - 0.2
19/08:30am 19.9 18.5 12.2 61 4.3 S 11 17 6 9 - - 0.2
19/08:00am 19.6 18.6 13.3 67 3.6 SSE 11 17 6 9 - - 0.2
19/07:30am 18.7 17.6 13.1 70 3.2 SSE 11 20 6 11 - - 0.2
19/07:00am 18.4 17.0 13.3 72 2.9 S 13 20 7 11 - - 0.2
19/06:30am 18.0 16.4 12.9 72 2.9 S 13 19 7 10 - - 0.2
19/06:00am 18.4 15.3 11.7 65 3.7 SSE 19 26 10 14 - - 0.2
19/05:30am 20.3 18.0 5.9 39 7.2 SW 7 9 4 5 - - 0.2
19/05:00am 21.4 18.4 6.1 37 7.7 WSW 11 17 6 9 - - 0.2
19/04:30am 21.5 18.6 6.6 38 7.6 WSW 11 17 6 9 - - 0.2
19/04:00am 22.2 18.5 8.0 40 7.4 WSW 17 24 9 13 - - 0.2
19/03:30am 21.7 18.3 10.5 49 6.1 WSW 19 26 10 14 - - 0.2
19/03:00am 18.2 18.5 15.1 82 1.8 ESE 7 11 4 6 - - 0.2
19/02:30am 18.4 19.7 17.2 93 0.7 SSE 6 9 3 5 - - 0.2
19/02:00am 18.8 20.7 17.6 93 0.7 WSW 4 6 2 3 - - 0.2
19/01:30am 19.1 21.4 17.8 92 0.8 SSW 2 4 1 2 - - 0.2
19/01:00am 19.7 21.8 18.2 91 0.9 SSW 4 6 2 3 - - 0.2
19/12:30am 20.0 22.1 18.1 89 1.2 SSW 4 6 2 3 - - 0.2
19/12:00am 20.5 22.7 18.3 87 1.4 WSW 4 6 2 3 - - 0.2
 
Date/Time
EDT
Temp
°C
App
Temp
°C
Dew
Point
Rel
Hum
%
Delta-T
°C
Wind Press
QNH
hPa
Press
MSL
hPa
Rain
since 9 am
mm
Dir
 
Spd
km/h
Gust
km/h
Spd
kts
Gust
kts
18/11:30pm 21.2 23.1 18.6 85 1.6 NW 6 7 3 4 - - 0.2
18/11:00pm 21.6 24.3 18.6 83 1.9 SSW 2 4 1 2 - - 0.2
18/10:30pm 22.5 25.7 18.9 80 2.3 CALM 0 0 0 0 - - 0.2
18/10:00pm 22.7 25.8 18.7 78 2.5 CALM 0 0 0 0 - - 0.2
18/09:30pm 23.8 26.4 19.3 76 2.9 NE 4 7 2 4 - - 0.2
18/09:00pm 23.5 25.8 18.6 74 3.1 SW 4 6 2 3 - - 0.2

Other Formats:

Comma delimited format used in spreadsheet applications
http://www.bom.gov.au/fwo/IDN60801/IDN60801.94763.axf

JavaScript Object Notation format (JSON) in row-major order
http://www.bom.gov.au/fwo/IDN60801/IDN60801.94763.json